createdAt,value
2022-11-02T00:00:14.712Z,10.77
2022-11-02T00:02:41.936Z,10.90
2022-11-02T00:05:13.717Z,10.95
2022-11-02T00:07:41.975Z,10.50
2022-11-02T00:10:10.318Z,10.70
2022-11-02T00:12:37.599Z,12.23
2022-11-02T00:15:05.651Z,10.10
2022-11-02T00:17:34.303Z,11.70
2022-11-02T00:20:04.047Z,10.15
2022-11-02T00:22:33.493Z,9.38
2022-11-02T00:25:03.973Z,9.43
2022-11-02T00:27:32.125Z,9.32
2022-11-02T00:30:00.658Z,8.65
2022-11-02T00:32:28.000Z,9.73
2022-11-02T00:34:55.210Z,9.07
2022-11-02T00:37:22.499Z,9.38
2022-11-02T00:39:49.756Z,8.80
2022-11-02T00:42:16.958Z,9.05
2022-11-02T00:44:44.224Z,8.13
2022-11-02T00:47:12.437Z,8.65
2022-11-02T00:49:40.080Z,8.52
2022-11-02T00:52:07.768Z,9.43
2022-11-02T00:54:35.414Z,8.05
2022-11-02T00:57:02.931Z,9.00
2022-11-02T00:59:30.316Z,9.02
2022-11-02T01:01:58.004Z,8.38
2022-11-02T01:04:25.506Z,9.15
2022-11-02T01:06:52.895Z,9.00
2022-11-02T01:09:21.662Z,9.73
2022-11-02T01:12:05.642Z,9.65
2022-11-02T01:14:38.837Z,8.90
2022-11-02T01:17:08.819Z,8.90
2022-11-02T01:19:37.357Z,8.70
2022-11-02T01:22:08.522Z,8.82
2022-11-02T01:24:37.169Z,8.95
2022-11-02T01:28:15.590Z,8.48
2022-11-02T01:30:43.068Z,8.77
2022-11-02T01:33:12.054Z,8.32
2022-11-02T01:35:39.291Z,8.18
2022-11-02T01:38:06.805Z,8.85
2022-11-02T01:40:39.588Z,8.73
2022-11-02T01:43:23.660Z,8.85
2022-11-02T01:45:58.313Z,9.00
2022-11-02T01:48:33.161Z,8.98
2022-11-02T01:51:04.239Z,9.23
2022-11-02T01:53:33.708Z,9.45
2022-11-02T01:56:01.849Z,8.85
2022-11-02T01:58:29.372Z,8.05
2022-11-02T02:00:56.677Z,8.88
2022-11-02T02:03:24.408Z,8.15
2022-11-02T02:05:57.943Z,8.07
2022-11-02T02:08:26.573Z,8.95
2022-11-02T02:10:58.079Z,8.50
2022-11-02T02:13:28.105Z,8.20
2022-11-02T02:16:18.779Z,8.57
2022-11-02T02:18:57.585Z,8.32
2022-11-02T02:21:58.534Z,7.85
2022-11-02T02:24:36.502Z,7.20
2022-11-02T02:27:27.873Z,7.57
2022-11-02T02:30:06.810Z,8.13
2022-11-02T02:32:36.652Z,7.15
2022-11-02T02:35:16.672Z,7.25
2022-11-02T02:37:55.016Z,6.63
2022-11-02T02:40:46.800Z,6.15
2022-11-02T02:43:26.190Z,6.28
2022-11-02T02:46:01.303Z,6.05
2022-11-02T02:48:30.039Z,5.85
2022-11-02T02:51:09.797Z,5.70
2022-11-02T02:53:46.336Z,5.97
2022-11-02T02:56:19.825Z,5.22
2022-11-02T02:59:11.030Z,5.68
2022-11-02T03:01:42.572Z,5.30
2022-11-02T03:04:12.745Z,6.07
2022-11-02T03:06:42.431Z,5.30
2022-11-02T03:09:19.148Z,5.70
2022-11-02T03:12:01.193Z,7.45
2022-11-02T03:14:46.985Z,6.78
2022-11-02T03:17:24.104Z,7.28
2022-11-02T03:20:03.131Z,8.52
2022-11-02T03:22:38.920Z,8.25
2022-11-02T03:25:24.591Z,8.90
2022-11-02T03:28:03.634Z,9.25
2022-11-02T03:30:38.755Z,9.60
2022-11-02T03:33:16.573Z,10.73
2022-11-02T03:35:55.372Z,9.82
2022-11-02T03:38:32.692Z,9.90
2022-11-02T03:41:03.175Z,9.93
2022-11-02T03:43:34.997Z,9.55
2022-11-02T03:46:05.811Z,8.70
2022-11-02T03:48:38.133Z,9.52
2022-11-02T03:51:11.312Z,9.45
2022-11-02T03:53:45.951Z,8.73
2022-11-02T03:56:37.802Z,8.32
2022-11-02T03:59:05.083Z,8.05
2022-11-02T04:01:40.282Z,8.15
2022-11-02T04:04:07.922Z,7.65
2022-11-02T04:06:37.205Z,7.10
2022-11-02T04:09:05.501Z,7.30
2022-11-02T04:11:51.726Z,7.30
2022-11-02T04:14:37.827Z,7.60
2022-11-02T04:20:06.088Z,8.10
2022-11-02T04:22:52.130Z,7.93
2022-11-02T04:25:20.249Z,8.35
2022-11-02T04:28:08.581Z,8.50
2022-11-02T04:30:41.352Z,8.75
2022-11-02T04:33:27.425Z,8.48
2022-11-02T04:36:03.185Z,8.45
2022-11-02T04:38:40.764Z,9.00
2022-11-02T04:41:36.949Z,8.50
2022-11-02T04:44:07.865Z,10.60
2022-11-02T04:46:37.523Z,11.50
2022-11-02T04:49:05.617Z,11.60
2022-11-02T04:51:35.457Z,12.65
2022-11-02T04:54:03.981Z,12.63
2022-11-02T04:56:32.601Z,13.25
2022-11-02T04:59:00.984Z,13.55
2022-11-02T05:01:31.349Z,13.45
2022-11-02T05:04:00.815Z,13.38
2022-11-02T05:06:31.022Z,13.75
2022-11-02T05:08:58.548Z,13.50
2022-11-02T05:11:26.531Z,13.35
2022-11-02T05:13:55.140Z,11.15
2022-11-02T05:16:22.407Z,11.38
2022-11-02T05:18:52.558Z,10.55
2022-11-02T05:21:20.728Z,10.15
2022-11-02T05:23:49.651Z,8.73
2022-11-02T05:26:17.211Z,9.02
2022-11-02T05:28:48.034Z,8.40
2022-11-02T05:31:15.381Z,8.27
2022-11-02T05:33:46.900Z,7.90
2022-11-02T05:36:18.602Z,8.50
2022-11-02T05:38:51.991Z,8.57
2022-11-02T05:41:20.327Z,8.25
2022-11-02T05:43:48.996Z,8.32
2022-11-02T05:46:18.835Z,8.55
2022-11-02T05:48:46.252Z,8.57
2022-11-02T05:51:13.598Z,8.15
2022-11-02T05:53:40.975Z,8.93
2022-11-02T05:56:11.065Z,8.77
2022-11-02T05:58:38.375Z,8.27
2022-11-02T06:01:07.507Z,8.20
2022-11-02T06:03:36.097Z,8.57
2022-11-02T06:06:09.742Z,8.43
2022-11-02T06:08:38.686Z,8.10
2022-11-02T06:11:11.180Z,8.13
2022-11-02T06:13:39.104Z,7.68
2022-11-02T06:16:10.939Z,6.93
2022-11-02T06:18:39.349Z,6.90
2022-11-02T06:21:07.162Z,7.80
2022-11-02T06:23:34.700Z,7.38
2022-11-02T06:26:02.706Z,7.20
2022-11-02T06:28:31.149Z,6.90
2022-11-02T06:30:58.717Z,6.70
2022-11-02T06:33:26.177Z,6.97
2022-11-02T06:35:54.596Z,7.80
2022-11-02T06:38:22.379Z,6.90
2022-11-02T06:41:04.175Z,6.97
2022-11-02T06:43:33.239Z,7.80
2022-11-02T06:46:00.482Z,8.27
2022-11-02T06:48:33.340Z,8.30
2022-11-02T06:51:03.820Z,7.53
2022-11-02T06:53:31.371Z,7.78
2022-11-02T06:55:59.796Z,9.20
2022-11-02T06:58:27.204Z,8.32
2022-11-02T07:01:00.216Z,8.90
2022-11-02T07:03:28.193Z,8.85
2022-11-02T07:05:55.441Z,9.07
2022-11-02T07:08:23.251Z,9.23
2022-11-02T07:10:50.656Z,8.85
2022-11-02T07:13:18.204Z,9.02
2022-11-02T07:15:45.500Z,9.15
2022-11-02T07:18:13.330Z,11.80
2022-11-02T07:20:40.700Z,12.80
2022-11-02T07:23:09.570Z,13.52
2022-11-02T07:25:37.129Z,12.23
2022-11-02T07:28:04.734Z,12.70
2022-11-02T07:30:34.809Z,11.82
2022-11-02T07:33:02.558Z,12.63
2022-11-02T07:35:30.359Z,12.90
2022-11-02T07:38:02.602Z,11.30
2022-11-02T07:40:32.790Z,11.95
2022-11-02T07:43:00.408Z,12.30
2022-11-02T07:45:49.559Z,12.98
2022-11-02T07:48:17.365Z,13.57
2022-11-02T07:50:44.615Z,12.02
2022-11-02T07:53:11.845Z,13.95
2022-11-02T07:55:39.434Z,12.88
2022-11-02T07:58:10.312Z,12.80
2022-11-02T08:00:39.286Z,13.60
2022-11-02T08:03:08.211Z,15.15
2022-11-02T08:05:38.141Z,15.35
2022-11-02T08:08:14.506Z,14.43
2022-11-02T08:10:42.652Z,15.15
2022-11-02T08:13:12.887Z,14.88
2022-11-02T08:15:40.500Z,14.48
2022-11-02T08:18:14.205Z,14.20
2022-11-02T08:20:41.851Z,13.43
2022-11-02T08:23:10.980Z,14.30
2022-11-02T08:25:39.289Z,12.70
2022-11-02T08:28:09.075Z,13.48
2022-11-02T08:30:38.042Z,13.27
2022-11-02T08:33:13.080Z,13.73
2022-11-02T08:35:40.782Z,13.03
2022-11-02T08:38:09.133Z,13.13
2022-11-02T08:40:37.315Z,14.68
2022-11-02T08:43:07.024Z,14.75
2022-11-02T08:46:08.321Z,14.85
2022-11-02T08:48:23.430Z,14.20
2022-11-02T08:50:50.665Z,14.23
2022-11-02T08:53:18.220Z,14.60
2022-11-02T08:55:45.434Z,14.48
2022-11-02T08:58:12.728Z,14.20
2022-11-02T09:00:39.947Z,14.10
2022-11-02T09:03:12.449Z,13.20
2022-11-02T09:05:42.623Z,14.27
2022-11-02T09:08:16.704Z,14.60
2022-11-02T09:10:45.177Z,13.90
2022-11-02T09:13:14.281Z,14.88
2022-11-02T09:15:41.922Z,14.68
2022-11-02T09:18:09.966Z,15.25
2022-11-02T09:20:37.579Z,15.70
2022-11-02T09:23:04.840Z,14.48
2022-11-02T09:25:32.453Z,16.38
2022-11-02T09:27:59.736Z,16.55
2022-11-02T09:30:28.753Z,17.15
2022-11-02T09:33:01.903Z,17.38
2022-11-02T09:35:31.581Z,18.52
2022-11-02T09:37:59.081Z,17.80
2022-11-02T09:40:30.057Z,17.45
2022-11-02T09:43:13.833Z,18.65
2022-11-02T09:45:58.101Z,19.73
2022-11-02T09:48:48.236Z,19.08
2022-11-02T09:51:20.711Z,18.85
2022-11-02T09:54:16.187Z,19.98
2022-11-02T09:56:45.720Z,19.33
2022-11-02T09:59:21.796Z,17.98
2022-11-02T10:01:50.074Z,19.65
2022-11-02T10:04:44.965Z,20.50
2022-11-02T10:07:32.958Z,18.98
2022-11-02T10:10:12.013Z,20.52
2022-11-02T10:12:59.455Z,20.70
2022-11-02T10:15:56.812Z,19.67
2022-11-02T10:18:30.048Z,20.23
2022-11-02T10:21:02.330Z,19.77
2022-11-02T10:23:34.565Z,19.58
2022-11-02T10:26:03.398Z,21.02
2022-11-02T10:28:38.272Z,21.15
2022-11-02T10:31:36.738Z,20.08
2022-11-02T10:34:23.923Z,17.70
2022-11-02T10:37:22.533Z,15.45
2022-11-02T10:40:14.057Z,17.27
2022-11-02T10:42:47.076Z,16.48
2022-11-02T10:45:39.214Z,16.60
2022-11-02T10:48:18.173Z,16.70
2022-11-02T10:51:12.112Z,16.75
2022-11-02T10:53:51.351Z,17.48
2022-11-02T10:56:31.962Z,19.05
2022-11-02T10:59:02.193Z,18.08
2022-11-02T11:01:31.741Z,19.85
2022-11-02T11:04:04.815Z,21.08
2022-11-02T11:06:36.315Z,19.75
2022-11-02T11:09:20.844Z,19.40
2022-11-02T11:12:22.132Z,19.55
2022-11-02T11:20:37.091Z,20.73
2022-11-02T11:23:31.006Z,19.55
2022-11-02T11:26:03.860Z,19.10
2022-11-02T11:28:32.639Z,20.92
2022-11-02T11:31:05.319Z,19.90
2022-11-02T11:33:40.959Z,20.20
2022-11-02T11:36:10.432Z,20.52
2022-11-02T11:38:46.100Z,21.52
2022-11-02T11:41:13.577Z,19.38
2022-11-02T11:43:41.304Z,21.17
2022-11-02T11:46:11.582Z,20.90
2022-11-02T11:48:54.398Z,20.65
2022-11-02T11:51:42.314Z,22.70
2022-11-02T11:54:31.907Z,22.20
2022-11-02T11:57:23.661Z,20.17
2022-11-02T11:59:52.891Z,22.92
2022-11-02T12:02:24.919Z,22.90
2022-11-02T12:04:58.000Z,21.23
2022-11-02T12:07:53.475Z,22.25
2022-11-02T12:10:48.174Z,23.20
2022-11-02T12:13:52.002Z,23.05
2022-11-02T12:16:40.439Z,22.73
2022-11-02T12:19:21.116Z,23.08
2022-11-02T12:22:23.908Z,22.70
2022-11-02T12:25:11.497Z,23.40
2022-11-02T12:28:06.624Z,24.23
2022-11-02T12:30:33.814Z,24.70
2022-11-02T12:33:20.006Z,24.10
2022-11-02T12:35:59.373Z,26.25
2022-11-02T12:39:02.181Z,26.65
2022-11-02T12:41:48.374Z,27.33
2022-11-02T12:44:38.814Z,32.80
2022-11-02T12:47:12.257Z,31.02
2022-11-02T12:49:46.994Z,26.25
2022-11-02T12:52:14.305Z,29.23
2022-11-02T12:54:41.900Z,26.27
2022-11-02T12:57:15.061Z,26.63
2022-11-02T12:59:44.585Z,58.60
2022-11-02T13:02:18.240Z,54.92
2022-11-02T13:04:58.158Z,54.30
2022-11-02T13:07:46.859Z,35.20
2022-11-02T13:10:30.936Z,54.33
2022-11-02T13:13:01.701Z,42.95
2022-11-02T13:15:31.885Z,39.95
2022-11-02T13:18:12.991Z,46.83
2022-11-02T13:20:50.829Z,29.88
2022-11-02T13:23:43.367Z,31.67
2022-11-02T13:26:25.813Z,41.78
2022-11-02T13:28:57.677Z,47.83
2022-11-02T13:32:09.969Z,33.05
2022-11-02T13:34:43.403Z,30.20
2022-11-02T13:37:26.219Z,33.58
2022-11-02T13:40:00.417Z,34.65
2022-11-02T13:43:05.045Z,44.97
2022-11-02T13:45:53.862Z,37.92
2022-11-02T13:48:30.150Z,35.40
2022-11-02T13:51:03.847Z,34.58
2022-11-02T13:53:36.620Z,34.53
2022-11-02T13:56:09.319Z,35.17
2022-11-02T13:58:56.067Z,35.08
2022-11-02T14:01:25.648Z,34.15
2022-11-02T14:04:01.687Z,36.22
2022-11-02T14:06:31.995Z,33.95
2022-11-02T14:09:07.117Z,35.83
2022-11-02T14:11:40.540Z,37.38
2022-11-02T14:14:18.114Z,36.15
2022-11-02T14:16:47.015Z,37.33
2022-11-02T14:19:28.880Z,36.72
2022-11-02T14:21:58.842Z,38.63
2022-11-02T14:24:36.188Z,38.78
2022-11-02T14:27:12.553Z,39.00
2022-11-02T14:29:44.863Z,39.00
2022-11-02T14:32:21.499Z,36.47
2022-11-02T14:35:28.953Z,38.17
2022-11-02T14:40:51.101Z,41.63
2022-11-02T14:43:39.459Z,38.00
2022-11-02T14:46:30.361Z,37.83
2022-11-02T14:48:59.845Z,40.30
2022-11-02T14:51:34.138Z,41.58
2022-11-02T14:54:03.009Z,41.42
2022-11-02T14:56:51.573Z,41.22
2022-11-02T14:59:30.778Z,39.75
2022-11-02T15:02:01.726Z,38.78
2022-11-02T15:04:32.217Z,40.80
2022-11-02T15:07:01.492Z,39.38
2022-11-02T15:09:52.029Z,41.25
2022-11-02T15:12:38.902Z,39.90
2022-11-02T15:15:28.264Z,38.33
2022-11-02T15:18:13.253Z,39.55
2022-11-02T15:20:45.909Z,39.15
2022-11-02T15:23:29.876Z,38.53
2022-11-02T15:25:58.803Z,39.83
2022-11-02T15:28:29.728Z,40.17
2022-11-02T15:31:00.564Z,39.80
2022-11-02T15:33:44.493Z,40.13
2022-11-02T15:36:35.437Z,41.00
2022-11-02T15:39:08.876Z,41.40
2022-11-02T15:41:44.945Z,41.50
2022-11-02T15:44:24.155Z,42.10
2022-11-02T15:46:59.474Z,42.88
2022-11-02T15:49:56.126Z,42.15
2022-11-02T15:52:42.842Z,42.33
2022-11-02T15:55:24.229Z,42.95
2022-11-02T15:57:57.357Z,43.05
2022-11-02T16:00:30.239Z,42.65
2022-11-02T16:03:06.394Z,43.65
2022-11-02T16:08:26.024Z,55.35
2022-11-02T16:11:04.708Z,48.75
2022-11-02T16:13:48.874Z,48.88
2022-11-02T16:16:22.761Z,48.85
2022-11-02T16:18:52.770Z,51.88
2022-11-02T16:21:21.815Z,52.67
2022-11-02T16:23:52.181Z,68.13
2022-11-02T16:26:25.771Z,74.57
2022-11-02T16:28:55.652Z,60.13
2022-11-02T16:31:31.442Z,55.88
2022-11-02T16:34:05.260Z,63.28
2022-11-02T16:36:37.756Z,54.47
2022-11-02T16:39:25.446Z,49.58
2022-11-02T16:41:57.182Z,49.83
2022-11-02T16:44:33.534Z,43.92
2022-11-02T16:47:15.927Z,44.58
2022-11-02T16:49:52.475Z,44.75
2022-11-02T16:52:21.472Z,42.90
2022-11-02T16:54:48.844Z,39.65
2022-11-02T16:57:18.648Z,34.45
2022-11-02T16:59:56.459Z,33.20
2022-11-02T17:02:34.984Z,34.22
2022-11-02T17:05:06.374Z,33.70
2022-11-02T17:07:36.812Z,33.85
2022-11-02T17:10:06.750Z,36.08
2022-11-02T17:12:37.456Z,30.13
2022-11-02T17:15:14.700Z,36.72
2022-11-02T17:17:41.927Z,45.22
2022-11-02T17:20:14.521Z,37.78
2022-11-02T17:22:57.672Z,36.95
2022-11-02T17:25:32.316Z,35.38
2022-11-02T17:28:02.005Z,32.90
2022-11-02T17:30:35.434Z,31.17
2022-11-02T17:33:26.013Z,31.88
2022-11-02T17:35:55.519Z,33.10
2022-11-02T17:38:27.320Z,33.47
2022-11-02T17:40:55.339Z,31.35
2022-11-02T17:43:23.829Z,32.35
2022-11-02T17:45:58.677Z,31.83
2022-11-02T17:48:29.028Z,31.30
2022-11-02T17:50:57.337Z,31.55
2022-11-02T17:53:24.678Z,33.28
2022-11-02T17:55:52.007Z,32.15
2022-11-02T17:58:19.234Z,77.30
2022-11-02T18:00:46.738Z,38.50
2022-11-02T18:03:19.051Z,36.13
2022-11-02T18:05:50.078Z,34.67
2022-11-02T18:08:19.463Z,34.67
2022-11-02T18:10:48.280Z,37.35
2022-11-02T18:13:18.948Z,36.13
2022-11-02T18:15:46.826Z,33.88
2022-11-02T18:18:14.218Z,33.97
2022-11-02T18:20:42.235Z,34.28
2022-11-02T18:23:17.066Z,33.90
2022-11-02T18:25:44.425Z,34.80
2022-11-02T18:28:11.706Z,34.95
2022-11-02T18:30:44.165Z,35.20
2022-11-02T18:33:13.707Z,36.47
2022-11-02T18:35:42.477Z,36.47
2022-11-02T18:38:10.007Z,37.10
2022-11-02T18:40:37.345Z,35.63
2022-11-02T18:43:04.932Z,37.97
2022-11-02T18:45:32.570Z,39.45
2022-11-02T18:47:59.838Z,35.38
2022-11-02T18:50:27.067Z,34.58
2022-11-02T18:52:54.335Z,34.67
2022-11-02T18:55:21.607Z,32.53
2022-11-02T18:57:50.796Z,34.47
2022-11-02T19:00:18.407Z,34.58
2022-11-02T19:02:45.726Z,30.80
2022-11-02T19:05:31.611Z,31.52
2022-11-02T19:08:20.744Z,31.90
2022-11-02T19:10:48.319Z,31.02
2022-11-02T19:13:16.022Z,33.55
2022-11-02T19:15:43.406Z,31.80
2022-11-02T19:18:12.223Z,28.98
2022-11-02T19:20:39.438Z,34.08
2022-11-02T19:23:08.351Z,37.85
2022-11-02T19:25:35.737Z,44.38
2022-11-02T19:28:04.540Z,43.22
2022-11-02T19:30:32.217Z,44.28
2022-11-02T19:32:59.534Z,44.78
2022-11-02T19:35:26.758Z,48.38
2022-11-02T19:37:58.265Z,55.83
2022-11-02T19:40:25.537Z,198.45
2022-11-02T19:42:52.836Z,77.13
2022-11-02T19:45:20.080Z,94.22
2022-11-02T19:47:47.731Z,63.85
2022-11-02T19:50:14.941Z,48.38
2022-11-02T19:52:42.157Z,42.10
2022-11-02T19:55:09.643Z,42.08
2022-11-02T19:57:36.948Z,39.67
2022-11-02T20:00:04.463Z,37.63
2022-11-02T20:02:36.347Z,37.78
2022-11-02T20:05:03.771Z,39.03
2022-11-02T20:07:31.012Z,46.90
2022-11-02T20:09:59.712Z,39.90
2022-11-02T20:12:27.191Z,39.03
2022-11-02T20:14:54.494Z,37.17
2022-11-02T20:17:52.001Z,37.75
2022-11-02T20:20:09.263Z,36.45
2022-11-02T20:22:38.467Z,38.63
2022-11-02T20:25:07.100Z,37.97
2022-11-02T20:27:37.075Z,40.58
2022-11-02T20:30:04.965Z,40.85
2022-11-02T20:32:32.276Z,41.63
2022-11-02T20:34:59.524Z,40.47
2022-11-02T20:37:27.421Z,39.53
2022-11-02T20:39:54.640Z,38.65
2022-11-02T20:42:22.042Z,37.63
2022-11-02T20:44:50.038Z,39.47
2022-11-02T20:47:17.317Z,41.85
2022-11-02T20:49:50.347Z,43.75
2022-11-02T20:52:18.771Z,45.03
2022-11-02T20:54:45.982Z,49.38
2022-11-02T20:57:13.329Z,63.63
2022-11-02T20:59:40.548Z,50.53
2022-11-02T21:02:10.993Z,45.97
2022-11-02T21:04:38.362Z,47.75
2022-11-02T21:07:05.743Z,53.28
2022-11-02T21:09:33.026Z,49.92
2022-11-02T21:12:19.104Z,46.92
2022-11-02T21:14:46.521Z,45.65
2022-11-02T21:17:13.854Z,44.75
2022-11-02T21:19:41.088Z,45.35
2022-11-02T21:22:08.299Z,44.70
2022-11-02T21:24:38.438Z,43.72
2022-11-02T21:27:06.813Z,41.75
2022-11-02T21:29:34.082Z,43.53
2022-11-02T21:32:01.450Z,44.00
2022-11-02T21:34:28.708Z,43.20
2022-11-02T21:36:55.975Z,43.67
2022-11-02T21:39:23.240Z,49.80
2022-11-02T21:41:50.504Z,46.15
2022-11-02T21:44:17.692Z,47.88
2022-11-02T21:46:45.015Z,47.35
2022-11-02T21:49:13.225Z,46.00
2022-11-02T21:51:40.912Z,45.22
2022-11-02T21:54:08.863Z,46.42
2022-11-02T21:56:36.858Z,45.30
2022-11-02T21:59:09.108Z,45.70
2022-11-02T22:01:46.725Z,46.60
2022-11-02T22:04:28.136Z,45.15
2022-11-02T22:06:56.310Z,46.72
2022-11-02T22:09:23.672Z,45.47
2022-11-02T22:12:10.389Z,46.22
2022-11-02T22:14:38.894Z,46.20
2022-11-02T22:17:16.679Z,43.35
2022-11-02T22:19:50.686Z,45.28
2022-11-02T22:22:18.805Z,43.88
2022-11-02T22:24:46.736Z,44.05
2022-11-02T22:27:14.024Z,44.10
2022-11-02T22:29:41.300Z,43.40
2022-11-02T22:32:08.550Z,43.88
2022-11-02T22:34:35.760Z,44.90
2022-11-02T22:37:21.964Z,43.90
2022-11-02T22:39:49.270Z,43.88
2022-11-02T22:42:16.484Z,45.25
2022-11-02T22:44:43.783Z,45.90
2022-11-02T22:47:11.058Z,43.65
2022-11-02T22:49:38.440Z,42.88
2022-11-02T22:52:05.702Z,44.63
2022-11-02T22:54:33.397Z,44.28
2022-11-02T22:57:00.785Z,44.13
2022-11-02T22:59:28.193Z,43.40
2022-11-02T23:01:55.686Z,39.13
2022-11-02T23:04:23.102Z,39.85
2022-11-02T23:06:50.405Z,41.63
2022-11-02T23:09:17.666Z,41.78
2022-11-02T23:11:44.908Z,44.42
2022-11-02T23:14:14.534Z,44.28
2022-11-02T23:16:44.059Z,44.50
2022-11-02T23:19:23.515Z,41.88
2022-11-02T23:22:15.902Z,40.05
2022-11-02T23:25:06.350Z,39.97
2022-11-02T23:27:55.408Z,39.97
2022-11-02T23:30:42.216Z,39.95
2022-11-02T23:33:09.679Z,39.00
2022-11-02T23:35:55.659Z,38.83
2022-11-02T23:38:23.011Z,39.35
2022-11-02T23:40:55.087Z,38.60
2022-11-02T23:43:22.292Z,39.13
2022-11-02T23:45:49.474Z,38.92
2022-11-02T23:51:07.781Z,37.75
2022-11-02T23:53:54.406Z,38.05
2022-11-02T23:59:07.387Z,36.85
